Time;durP1;ratioP1;P1;durP2;ratioP2;P2;SDS_P1;SDS_P2;PMS_P1;PMS_P2;Temp;Humidity;BMP_temperature;BMP_pressure;BME280_temperature;BME280_humidity;BME280_pressure;Samples;Min_cycle;Max_cycle;Signal;HPM_P1;HPM_P2
2023/10/19 08:40:23;;;;;;;9.18;6.32;;;;;;;19.68;52.61;93184.38;6240033;22;20035;-84
2023/10/19 08:42:48;;;;;;;6.60;5.72;;;;;;;19.82;52.29;93182.63;6169618;23;20047;-84
2023/10/19 09:13:44;;;;;;;6.68;5.70;;;;;;;21.55;51.37;93188.00;6243303;22;20016;-85
2023/10/19 09:16:12;;;;;;;6.82;5.90;;;;;;;21.88;49.76;93179.91;6192099;23;20016;-85
2023/10/19 09:18:38;;;;;;;7.28;5.18;;;;;;;21.94;49.32;93165.47;6168214;23;20004;-85
2023/10/19 09:21:07;;;;;;;7.15;4.65;;;;;;;21.96;48.30;93165.94;6217559;23;20023;-85
2023/10/19 09:23:33;;;;;;;4.85;4.35;;;;;;;22.12;47.71;93174.31;6191614;23;20008;-85
2023/10/19 09:26:05;;;;;;;6.32;5.63;;;;;;;21.90;47.97;93150.50;6216854;23;20019;-84
2023/10/19 09:28:33;;;;;;;7.40;5.80;;;;;;;21.66;48.61;93140.94;6216951;23;20008;-84
2023/10/19 09:31:00;;;;;;;6.60;4.78;;;;;;;21.44;48.49;93139.81;6216891;23;20138;-85
2023/10/19 09:33:27;;;;;;;7.57;5.30;;;;;;;21.75;48.08;93149.72;6216655;23;20012;-84
2023/10/19 09:38:27;;;;;;;7.53;6.68;;;;;;;22.29;49.77;93131.34;6238614;22;20031;-84
2023/10/19 09:40:54;;;;;;;9.15;8.25;;;;;;;22.13;49.18;93133.53;6216869;23;20007;-84
2023/10/19 09:43:32;;;;;;;11.55;9.48;;;;;;;22.01;49.57;93133.31;6216850;23;20019;-86
2023/10/19 09:46:04;;;;;;;12.07;10.70;;;;;;;21.81;49.30;93140.59;6217587;23;20015;-85
2023/10/19 09:48:35;;;;;;;12.57;11.15;;;;;;;21.76;48.90;93130.16;6216782;23;20054;-85
2023/10/19 09:51:02;;;;;;;12.88;10.43;;;;;;;22.00;48.35;93131.72;6192313;23;20012;-86
2023/10/19 09:53:31;;;;;;;14.65;10.52;;;;;;;21.91;49.12;93141.47;6217132;23;20094;-86
2023/10/19 10:21:24;;;;;;;11.60;9.52;;;;;;;23.08;46.99;93094.66;6218192;22;20031;-84
2023/10/19 10:23:53;;;;;;;9.73;8.55;;;;;;;23.37;48.71;93092.22;6216125;23;20024;-85
2023/10/19 10:26:25;;;;;;;9.73;8.63;;;;;;;23.32;48.69;93092.38;6216057;23;20019;-84
2023/10/19 10:34:33;;;;;;;12.38;8.70;;;;;;;23.49;46.84;93099.56;6266670;22;20019;-86
2023/10/19 10:37:10;;;;;;;10.70;8.25;;;;;;;23.56;47.82;93101.78;6243250;22;20008;-85
2023/10/19 10:39:37;;;;;;;9.10;8.10;;;;;;;23.86;45.18;93094.03;6243241;22;19996;-85
2023/10/19 10:42:07;;;;;;;9.48;8.40;;;;;;;23.53;46.54;93083.81;6243000;22;20008;-85
2023/10/19 10:44:52;;;;;;;9.38;7.80;;;;;;;23.37;46.44;93078.97;6242929;22;20032;-85
2023/10/19 10:47:24;;;;;;;11.88;7.95;;;;;;;23.59;47.02;93069.31;6238792;23;20031;-85
2023/10/19 10:49:54;;;;;;;9.27;7.70;;;;;;;23.49;46.18;93066.97;6237039;23;20000;-85
2023/10/19 10:52:36;;;;;;;9.07;7.68;;;;;;;23.56;46.67;93072.59;6231063;23;20061;-84
2023/10/19 10:55:13;;;;;;;9.05;7.50;;;;;;;23.67;47.23;93065.88;6207890;22;20021;-85
2023/10/19 10:57:40;;;;;;;9.55;7.35;;;;;;;23.82;45.15;93067.31;6183947;23;20019;-85
2023/10/19 11:00:15;;;;;;;8.30;7.30;;;;;;;24.04;46.57;93065.59;6232168;23;20001;-84
2023/10/19 11:02:45;;;;;;;8.88;6.35;;;;;;;23.99;44.56;93054.03;6184696;23;20039;-86
2023/10/19 11:05:12;;;;;;;9.00;7.00;;;;;;;24.32;45.78;93058.81;6229431;23;20012;-84
2023/10/19 11:10:06;;;;;;;10.23;7.60;;;;;;;24.50;45.74;93043.63;6225206;23;20020;-84
2023/10/19 11:15:01;;;;;;;8.80;7.57;;;;;;;24.45;43.49;93035.03;6213032;22;20029;-85
2023/10/19 11:17:31;;;;;;;13.63;7.43;;;;;;;24.43;44.69;93043.31;6205839;23;20004;-86
2023/10/19 11:19:58;;;;;;;10.30;8.18;;;;;;;24.28;46.09;93038.53;6205447;23;20012;-85
2023/10/19 11:22:27;;;;;;;9.88;7.20;;;;;;;24.24;45.08;93034.91;6181756;23;20057;-85
2023/10/19 11:24:54;;;;;;;9.13;8.02;;;;;;;23.74;44.72;93020.28;6181279;23;20012;-86
2023/10/19 11:27:27;;;;;;;9.95;7.25;;;;;;;23.85;44.35;93032.16;6193041;23;20080;-85
2023/10/19 11:29:58;;;;;;;7.47;6.78;;;;;;;23.43;45.80;93037.91;6183704;23;20008;-86
2023/10/19 11:55:52;;;;;;;10.57;7.50;;;;;;;23.04;47.33;93038.81;6211596;23;20025;-85
2023/10/19 11:58:17;;;;;;;10.65;7.68;;;;;;;22.97;46.93;93041.88;6186772;23;20013;-86
2023/10/19 12:00:46;;;;;;;8.50;7.30;;;;;;;22.97;46.84;93028.63;6162342;23;20014;-87
2023/10/19 12:05:37;;;;;;;9.10;6.65;;;;;;;23.39;47.53;93034.31;6241059;22;20024;-85
2023/10/19 12:08:03;;;;;;;9.10;6.82;;;;;;;23.35;46.72;93033.38;6216929;23;20023;-85
2023/10/19 12:10:38;;;;;;;8.25;6.65;;;;;;;23.67;45.73;93026.06;6217206;23;20004;-86
2023/10/19 12:13:08;;;;;;;8.55;7.60;;;;;;;23.77;46.10;93032.94;6194300;23;20074;-85
2023/10/19 12:55:08;;;;;;;9.77;8.48;;;;;;;24.03;45.94;92982.50;6243874;22;20021;-85
2023/10/19 12:57:35;;;;;;;9.05;8.15;;;;;;;23.98;46.00;92991.38;6193928;23;20086;-85
2023/10/19 13:02:30;;;;;;;12.70;9.10;;;;;;;23.68;46.92;92977.19;6148995;23;20009;-86
2023/10/19 13:17:32;;;;;;;11.73;10.23;;;;;;;23.47;46.68;92979.72;6214237;23;20020;-85
2023/10/19 13:22:24;;;;;;;11.90;9.15;;;;;;;23.67;46.83;92985.50;6235756;22;20039;-84
2023/10/19 13:27:15;;;;;;;10.88;9.63;;;;;;;23.22;46.66;92981.28;6242477;22;20028;-86
2023/10/19 13:29:41;;;;;;;13.15;9.75;;;;;;;23.57;45.86;92958.19;6216636;23;20006;-84
2023/10/19 13:32:07;;;;;;;11.73;9.55;;;;;;;23.49;46.04;92947.56;6192322;23;20008;-84
2023/10/19 13:36:58;;;;;;;12.02;10.27;;;;;;;22.68;48.37;92946.25;6234870;22;20024;-85
2023/10/19 13:39:25;;;;;;;12.80;9.70;;;;;;;22.77;48.28;92950.47;6191765;23;20028;-85
2023/10/19 13:41:53;;;;;;;16.33;9.82;;;;;;;22.80;48.44;92949.06;6192027;23;20015;-84
2023/10/19 13:44:20;;;;;;;12.70;9.68;;;;;;;22.93;47.89;92934.13;6191671;23;20011;-85
2023/10/19 13:46:46;;;;;;;12.85;9.90;;;;;;;22.98;48.06;92928.66;6192168;23;20012;-85
2023/10/19 13:49:13;;;;;;;13.05;10.13;;;;;;;22.97;48.21;92922.59;6238147;22;20004;-86
2023/10/19 13:51:43;;;;;;;12.20;10.30;;;;;;;22.72;48.41;92920.69;6216518;23;20020;-85
2023/10/19 13:54:08;;;;;;;12.43;10.40;;;;;;;22.88;48.16;92907.75;6216919;23;20016;-85
2023/10/19 13:56:34;;;;;;;14.27;10.65;;;;;;;22.92;47.66;92901.50;6216484;23;20079;-86
2023/10/19 13:58:59;;;;;;;12.65;10.95;;;;;;;22.58;48.03;92902.25;6167125;23;20012;-85
2023/10/19 14:01:25;;;;;;;12.63;11.32;;;;;;;22.28;49.05;92904.69;6222708;22;20024;-85
2023/10/19 14:03:54;;;;;;;14.85;10.93;;;;;;;22.43;49.34;92900.84;6192102;23;20105;-85
2023/10/19 14:09:18;;;;;;;12.70;10.13;;;;;;;22.95;48.59;92895.59;6182094;23;20029;-86
2023/10/19 14:11:44;;;;;;;12.50;10.32;;;;;;;23.13;48.07;92887.69;6132067;23;20020;-86
2023/10/19 14:14:13;;;;;;;11.73;10.45;;;;;;;22.94;48.51;92885.31;6156683;23;20047;-86
2023/10/19 14:16:39;;;;;;;14.93;10.10;;;;;;;22.75;49.20;92882.97;6156223;23;20075;-85
2023/10/19 14:19:04;;;;;;;13.52;10.60;;;;;;;23.07;48.87;92879.09;6180818;23;20013;-85
2023/10/19 14:21:30;;;;;;;13.32;10.55;;;;;;;23.23;47.93;92852.91;6156505;23;20082;-85
2023/10/19 14:23:56;;;;;;;14.82;10.90;;;;;;;23.12;48.48;92849.00;6242517;22;20012;-86
2023/10/19 14:26:22;;;;;;;15.35;11.57;;;;;;;22.95;49.09;92858.50;6216291;23;20141;-85
2023/10/19 14:28:47;;;;;;;14.13;11.43;;;;;;;22.93;48.90;92863.34;6190701;23;20024;-85
2023/10/19 14:31:16;;;;;;;14.13;11.07;;;;;;;22.49;49.45;92848.50;6167005;23;20008;-85
2023/10/19 14:33:42;;;;;;;14.25;12.27;;;;;;;22.52;49.87;92851.28;6215964;23;20012;-85
2023/10/19 14:36:09;;;;;;;14.82;12.25;;;;;;;22.47;49.49;92835.56;6216617;23;20031;-85
2023/10/19 14:38:35;;;;;;;15.70;12.77;;;;;;;22.31;49.47;92816.69;6216552;23;20000;-86
2023/10/19 14:41:05;;;;;;;14.10;12.60;;;;;;;22.24;50.22;92811.81;6191325;23;20011;-86
2023/10/19 14:43:30;;;;;;;14.33;12.50;;;;;;;22.52;49.30;92803.59;6216358;23;20031;-86
2023/10/19 14:45:58;;;;;;;14.00;11.63;;;;;;;22.44;48.91;92786.63;6215829;23;20004;-85
2023/10/19 14:48:24;;;;;;;14.48;11.63;;;;;;;22.28;49.40;92787.41;6191478;23;20022;-86
2023/10/19 14:53:17;;;;;;;14.40;11.43;;;;;;;21.99;49.61;92764.88;6235305;22;20082;-85
2023/10/19 14:55:47;;;;;;;12.50;11.15;;;;;;;22.11;50.27;92746.56;6215342;23;20253;-85
2023/10/19 15:03:13;;;;;;;15.05;12.00;;;;;;;;;;6241918;22;20024;-85
2023/10/19 15:05:43;;;;;;;15.05;12.30;;;;;;;21.53;51.72;92759.00;6190347;23;20016;-86
2023/10/19 15:08:09;;;;;;;15.77;12.20;;;;;;;21.45;51.67;92743.91;6190846;23;20070;-85
2023/10/19 15:10:41;;;;;;;16.38;11.90;;;;;;;21.33;52.25;92739.16;6190531;23;20032;-85
2023/10/19 15:13:06;;;;;;;14.70;12.90;;;;;;;21.38;52.07;92732.94;6215360;23;20122;-86
2023/10/19 15:15:32;;;;;;;13.98;12.00;;;;;;;21.05;52.40;92726.13;6215616;23;20043;-85
2023/10/19 15:18:00;;;;;;;14.95;11.88;;;;;;;20.74;53.36;92722.69;6191137;23;20012;-85
2023/10/19 15:20:27;;;;;;;13.48;11.52;;;;;;;20.64;53.24;92732.44;6191515;23;20023;-86
2023/10/19 15:30:29;;;;;;;14.65;12.05;;;;;;;20.14;54.11;92707.94;6183015;23;20041;-85
2023/10/19 15:32:55;;;;;;;13.75;11.10;;;;;;;19.97;54.44;92698.81;6185663;23;20020;-85
2023/10/19 15:35:23;;;;;;;14.40;11.75;;;;;;;20.05;54.19;92699.97;6210317;23;20012;-85
2023/10/19 15:40:17;;;;;;;14.85;11.32;;;;;;;20.21;54.12;92698.53;6237213;22;20008;-85
2023/10/19 15:42:43;;;;;;;13.65;11.32;;;;;;;20.36;53.06;92681.56;6215648;23;20012;-85
2023/10/19 15:45:12;;;;;;;15.02;11.18;;;;;;;20.20;53.66;92689.06;6190193;23;20016;-85
2023/10/19 15:47:41;;;;;;;16.83;11.13;;;;;;;20.34;52.97;92675.03;6215437;23;20008;-85
2023/10/19 15:50:08;;;;;;;14.13;10.88;;;;;;;20.26;53.73;92687.88;6165866;23;20000;-85
2023/10/19 16:05:20;;;;;;;17.77;12.38;;;;;;;20.14;54.50;92698.16;6210971;23;20016;-85
2023/10/19 16:07:46;;;;;;;16.67;12.18;;;;;;;20.30;53.84;92709.16;6160838;23;20030;-85
2023/10/19 16:22:28;;;;;;;15.57;11.90;;;;;;;19.39;56.44;92699.47;6211132;23;20052;-84
2023/10/19 16:24:57;;;;;;;12.23;10.77;;;;;;;19.33;56.20;92693.50;6185253;23;20016;-85
2023/10/19 16:27:23;;;;;;;13.30;11.23;;;;;;;19.33;56.13;92686.38;6184206;23;20043;-84
2023/10/19 16:29:48;;;;;;;16.23;13.52;;;;;;;19.36;56.37;92686.84;6184308;23;20004;-85
2023/10/19 16:32:13;;;;;;;19.65;17.48;;;;;;;19.47;56.05;92689.00;6185203;23;20024;-85
2023/10/19 16:34:41;;;;;;;16.25;13.82;;;;;;;19.57;56.02;92690.63;6185306;23;20004;-85
2023/10/19 16:37:08;;;;;;;20.10;13.77;;;;;;;19.46;56.34;92692.72;6161003;23;20108;-86
2023/10/19 16:39:36;;;;;;;14.98;12.70;;;;;;;19.46;56.75;92684.81;6160633;23;20089;-85
2023/10/19 16:42:02;;;;;;;15.90;12.95;;;;;;;19.16;57.41;92678.28;6210428;23;20009;-85
2023/10/19 16:44:29;;;;;;;18.77;13.43;;;;;;;19.24;57.18;92692.63;6176617;22;20020;-85
2023/10/19 16:46:55;;;;;;;16.95;12.48;;;;;;;19.36;56.84;92700.81;6135678;23;20032;-85
2023/10/19 16:51:49;;;;;;;13.18;10.80;;;;;;;19.25;56.54;92686.31;6185473;23;20017;-85
2023/10/19 16:54:15;;;;;;;14.40;11.20;;;;;;;19.33;56.27;92682.97;6172771;23;20083;-85
2023/10/19 16:59:16;;;;;;;15.68;11.43;;;;;;;19.19;56.00;92664.53;6239755;23;20087;-85
2023/10/19 17:01:42;;;;;;;14.00;11.27;;;;;;;19.30;56.31;92657.97;6215485;23;19997;-85
2023/10/19 17:04:09;;;;;;;12.45;9.15;;;;;;;19.46;54.90;92652.41;6191065;23;20015;-85
2023/10/19 17:06:36;;;;;;;12.48;9.25;;;;;;;19.39;55.42;92647.53;6217111;23;20012;-85
2023/10/19 17:09:19;;;;;;;9.40;7.15;;;;;;;19.45;54.43;92651.59;6216139;23;20028;-85
2023/10/19 17:11:52;;;;;;;7.88;6.10;;;;;;;19.59;54.35;92642.88;6216555;23;20076;-85
2023/10/19 17:14:21;;;;;;;7.55;6.18;;;;;;;19.54;54.22;92628.75;6191319;23;20008;-85
2023/10/19 17:16:47;;;;;;;8.07;6.65;;;;;;;19.72;53.86;92628.94;6217036;23;20007;-85
2023/10/19 17:26:48;;;;;;;11.07;8.73;;;;;;;19.39;55.28;92630.94;6205154;23;20024;-85
2023/10/19 17:29:14;;;;;;;13.25;9.80;;;;;;;19.43;55.44;92619.50;6192975;23;20069;-85
2023/10/19 17:31:39;;;;;;;11.18;8.93;;;;;;;19.46;55.61;92626.03;6192212;23;20008;-86
2023/10/19 17:34:07;;;;;;;10.07;7.47;;;;;;;19.29;55.97;92619.53;6216488;23;20032;-85
2023/10/19 17:36:33;;;;;;;8.40;4.85;;;;;;;19.33;54.92;92620.50;6166890;23;20010;-84
2023/10/19 17:39:00;;;;;;;10.05;8.25;;;;;;;19.22;56.13;92637.59;6191418;23;20008;-85
2023/10/19 17:41:26;;;;;;;10.65;9.50;;;;;;;18.98;57.14;92632.50;6216830;23;20027;-85
2023/10/19 17:46:17;;;;;;;7.30;6.18;;;;;;;19.11;56.26;92639.66;6241709;23;20028;-85
2023/10/19 17:48:45;;;;;;;7.47;4.97;;;;;;;19.27;55.44;92636.72;6216259;23;20012;-85
2023/10/19 17:51:12;;;;;;;7.30;5.38;;;;;;;18.94;55.99;92637.59;6217091;23;20018;-85
2023/10/19 17:53:39;;;;;;;5.90;5.30;;;;;;;19.13;55.67;92645.41;6191335;23;20012;-85
2023/10/19 17:56:08;;;;;;;4.85;3.80;;;;;;;19.35;54.71;92649.19;6216033;23;20011;-84
2023/10/19 17:58:35;;;;;;;5.80;2.92;;;;;;;19.48;54.74;92650.25;6215706;23;20101;-85
2023/10/19 18:01:03;;;;;;;4.50;3.40;;;;;;;19.50;54.39;92654.16;6216426;23;20104;-85
2023/10/19 18:08:32;;;;;;;15.98;14.20;;;;;;;19.66;54.57;92630.84;6242475;23;20035;-84
2023/10/19 18:10:59;;;;;;;17.80;15.65;;;;;;;19.77;54.46;92622.78;6216534;23;20004;-85
2023/10/19 18:13:27;;;;;;;9.80;7.63;;;;;;;19.64;53.66;92608.50;6190948;23;20008;-85
2023/10/19 18:15:57;;;;;;;6.50;4.97;;;;;;;19.69;53.50;92632.16;6215557;23;20039;-85
2023/10/19 18:18:24;;;;;;;4.38;3.88;;;;;;;19.87;53.20;92627.81;6216813;23;20019;-84
2023/10/19 18:23:17;;;;;;;3.00;2.70;;;;;;;19.69;53.50;92624.22;6239061;23;20024;-85
2023/10/19 18:25:43;;;;;;;5.75;3.28;;;;;;;19.72;53.00;92610.47;6216007;23;20004;-85
2023/10/19 18:28:09;;;;;;;3.63;2.60;;;;;;;19.87;52.61;92625.16;6216172;23;20011;-85
2023/10/19 18:30:35;;;;;;;2.85;2.20;;;;;;;19.85;52.81;92629.97;6216957;23;20000;-84
2023/10/19 18:35:29;;;;;;;4.10;2.40;;;;;;;19.57;53.47;92626.59;6234669;23;20016;-85
2023/10/19 18:37:55;;;;;;;4.03;2.80;;;;;;;19.39;54.50;92630.94;6216027;23;20008;-85
2023/10/19 18:40:23;;;;;;;8.82;7.13;;;;;;;19.32;55.55;92641.88;6166345;23;20003;-85
2023/10/19 18:42:48;;;;;;;7.15;4.68;;;;;;;19.10;55.88;92635.44;6191706;23;20016;-85
2023/10/19 18:50:15;;;;;;;11.48;7.65;;;;;;;19.08;56.42;92631.56;6242324;22;20276;-85
2023/10/19 18:52:40;;;;;;;8.90;6.68;;;;;;;18.87;56.87;92642.47;6216010;23;20040;-85
2023/10/19 18:55:07;;;;;;;7.45;5.85;;;;;;;19.22;56.21;92636.81;6191072;23;20012;-85
2023/10/19 18:57:36;;;;;;;7.65;6.30;;;;;;;19.17;56.20;92631.63;6191020;23;20124;-85
2023/10/19 19:00:03;;;;;;;9.65;6.25;;;;;;;18.95;56.68;92622.56;6191425;23;20012;-85
2023/10/19 19:02:29;;;;;;;7.80;6.15;;;;;;;18.86;56.93;92625.09;6166671;23;20008;-84
2023/10/19 19:04:55;;;;;;;8.63;6.82;;;;;;;19.02;56.42;92640.59;6165744;23;20061;-84
2023/10/19 19:07:22;;;;;;;7.65;6.80;;;;;;;19.00;56.77;92616.41;6189625;23;20022;-85
2023/10/19 19:09:47;;;;;;;9.52;7.03;;;;;;;19.34;55.84;92629.97;6216022;23;20082;-85
2023/10/19 19:12:13;;;;;;;10.80;8.38;;;;;;;19.09;56.90;92639.13;6191208;23;20049;-85
2023/10/19 19:14:41;;;;;;;10.48;8.73;;;;;;;18.83;57.65;92638.06;6215673;23;20012;-85
2023/10/19 19:17:09;;;;;;;9.13;6.63;;;;;;;18.25;58.97;92628.78;6191635;23;20065;-83
2023/10/19 19:19:34;;;;;;;8.57;5.60;;;;;;;18.15;59.41;92629.72;6215419;23;20019;-85
2023/10/19 19:22:00;;;;;;;9.10;6.10;;;;;;;18.49;58.51;92637.31;6190944;23;20012;-86
2023/10/19 19:26:50;;;;;;;8.30;6.60;;;;;;;18.87;57.19;92641.69;6240817;23;20035;-85
2023/10/19 19:29:20;;;;;;;7.22;6.28;;;;;;;18.96;56.59;92637.28;6221287;23;20233;-84
2023/10/19 19:31:48;;;;;;;8.73;7.83;;;;;;;18.84;57.25;92626.47;6173017;23;20035;-85
2023/10/19 19:34:12;;;;;;;12.63;9.35;;;;;;;18.84;57.68;92637.00;6206776;23;20019;-85
2023/10/19 19:36:40;;;;;;;13.20;7.80;;;;;;;18.71;57.84;92635.88;6191000;23;20068;-86
2023/10/19 19:39:07;;;;;;;8.05;6.78;;;;;;;18.81;57.41;92648.09;6190256;23;20107;-85
2023/10/19 19:41:36;;;;;;;7.38;6.28;;;;;;;18.93;57.10;92635.25;6215313;23;20058;-85
2023/10/19 19:44:01;;;;;;;8.45;6.32;;;;;;;18.80;57.27;92620.19;6190519;23;20020;-85
2023/10/19 19:51:38;;;;;;;8.38;6.97;;;;;;;18.66;57.06;92589.38;6241585;22;20023;-85
2023/10/19 19:54:06;;;;;;;10.02;7.43;;;;;;;18.28;57.73;92578.22;6165520;23;20016;-84
2023/10/19 19:56:32;;;;;;;9.75;7.57;;;;;;;18.62;57.21;92577.88;6189509;23;20016;-85
2023/10/19 19:58:59;;;;;;;12.18;8.10;;;;;;;18.58;57.43;92571.59;6165029;23;20018;-85
2023/10/19 20:01:24;;;;;;;10.25;7.88;;;;;;;18.43;57.92;92554.25;6190545;23;20079;-85
2023/10/19 20:06:15;;;;;;;9.00;7.90;;;;;;;18.09;58.66;92531.72;6227334;22;20114;-85
2023/10/19 20:08:40;;;;;;;10.15;8.02;;;;;;;18.17;58.63;92540.78;6214905;23;20056;-84
2023/10/19 20:11:07;;;;;;;10.23;7.82;;;;;;;18.35;57.76;92526.78;6189354;23;20016;-85
2023/10/19 20:13:33;;;;;;;8.90;6.60;;;;;;;18.40;57.36;92514.59;6190374;23;20008;-86
2023/10/19 20:16:00;;;;;;;8.75;5.80;;;;;;;18.40;57.67;92520.63;6190504;23;20012;-85
2023/10/19 20:23:26;;;;;;;7.10;5.90;;;;;;;17.94;59.58;92503.03;6210942;23;20025;-85
2023/10/19 20:25:54;;;;;;;7.65;6.45;;;;;;;17.68;60.48;92492.13;6185095;23;20093;-85
2023/10/19 20:28:20;;;;;;;9.90;8.65;;;;;;;17.74;60.69;92506.75;6159601;23;20015;-85
2023/10/19 20:30:45;;;;;;;10.38;8.90;;;;;;;17.10;62.42;92488.03;6160671;23;20012;-85
2023/10/19 20:33:12;;;;;;;12.85;8.68;;;;;;;16.89;63.17;92498.03;6184700;23;20012;-83
2023/10/19 20:35:37;;;;;;;8.80;7.13;;;;;;;16.58;64.06;92482.63;6135714;23;20016;-85
2023/10/19 20:38:05;;;;;;;9.18;7.50;;;;;;;16.99;62.62;92471.63;6185084;23;20004;-85
2023/10/19 20:40:30;;;;;;;9.18;7.00;;;;;;;17.56;60.77;92463.69;6138066;23;20011;-86
2023/10/19 20:42:58;;;;;;;10.10;8.00;;;;;;;17.27;62.00;92459.41;6186107;23;20009;-85
2023/10/19 20:50:34;;;;;;;9.98;7.95;;;;;;;17.15;62.57;92422.28;6235054;23;20082;-85
2023/10/19 20:53:03;;;;;;;11.93;7.43;;;;;;;17.33;62.28;92439.88;6167255;23;20020;-85
2023/10/19 20:55:28;;;;;;;8.23;6.15;;;;;;;17.70;60.44;92435.56;6216689;23;20000;-84
2023/10/19 21:00:22;;;;;;;9.35;6.45;;;;;;;17.19;61.97;92424.06;6230433;23;20023;-85
2023/10/19 21:02:48;;;;;;;8.18;5.75;;;;;;;16.90;62.82;92418.22;6192065;23;20008;-85
2023/10/19 21:10:18;;;;;;;5.47;4.22;;;;;;;17.77;59.60;92411.53;6241276;23;20032;-84
2023/10/19 21:12:44;;;;;;;5.53;4.32;;;;;;;17.63;59.53;92395.75;6215943;23;20028;-84
2023/10/19 21:15:14;;;;;;;4.93;4.22;;;;;;;17.71;59.49;92407.47;6216296;23;20027;-84
2023/10/19 21:17:44;;;;;;;5.25;4.32;;;;;;;17.39;60.20;92391.41;6191807;23;20012;-87
2023/10/19 21:20:14;;;;;;;5.72;4.38;;;;;;;16.89;62.14;92380.69;6216444;23;20031;-86
2023/10/19 21:22:44;;;;;;;5.07;3.78;;;;;;;17.01;62.09;92372.34;6192914;23;20000;-86
2023/10/19 21:25:15;;;;;;;5.60;3.97;;;;;;;16.88;62.13;92381.72;6215876;23;20011;-86
2023/10/19 21:27:41;;;;;;;5.97;4.15;;;;;;;16.86;62.28;92368.13;6191610;23;20016;-87
2023/10/19 23:02:08;;;;;;;7.47;4.75;;;;;;;17.94;58.45;92198.03;6211270;23;20084;-86
2023/10/19 23:04:36;;;;;;;5.95;5.07;;;;;;;18.07;57.97;92191.16;6186512;23;20032;-86
2023/10/19 23:07:04;;;;;;;9.05;5.80;;;;;;;17.80;59.08;92192.78;6161747;23;20001;-86
2023/10/19 23:09:31;;;;;;;7.13;5.55;;;;;;;17.65;59.67;92183.34;6162638;23;20123;-85
